createdAt,value
2022-08-11T00:01:21.413Z,27.23
2022-08-11T00:03:51.183Z,29.77
2022-08-11T00:06:27.312Z,22.00
2022-08-11T00:09:01.277Z,25.92
2022-08-11T00:11:49.373Z,19.50
2022-08-11T00:14:23.222Z,13.23
2022-08-11T00:17:08.515Z,18.00
2022-08-11T00:20:13.769Z,11.35
2022-08-11T00:22:29.922Z,11.63
2022-08-11T00:25:02.550Z,8.05
2022-08-11T00:27:36.613Z,4.65
2022-08-11T00:30:05.692Z,3.10
2022-08-11T00:35:53.752Z,2.45
2022-08-11T00:37:49.999Z,3.67
2022-08-11T00:43:04.943Z,5.10
2022-08-11T00:46:05.164Z,3.97
2022-08-11T00:48:47.740Z,3.58
2022-08-11T00:52:03.944Z,5.82
2022-08-11T00:54:41.125Z,3.65
2022-08-11T00:57:36.942Z,13.82
2022-08-11T01:00:25.597Z,13.65
2022-08-11T01:03:09.921Z,14.05
2022-08-11T01:06:08.076Z,9.63
2022-08-11T01:09:22.353Z,18.88
2022-08-11T01:12:14.443Z,13.57
2022-08-11T01:15:00.273Z,16.48
2022-08-11T01:17:26.883Z,13.73
2022-08-11T01:20:45.417Z,11.77
2022-08-11T01:23:20.329Z,12.02
2022-08-11T01:26:15.047Z,9.98
2022-08-11T01:28:54.094Z,5.18
2022-08-11T01:31:49.978Z,6.22
2022-08-11T01:34:41.746Z,11.93
2022-08-11T01:37:36.338Z,4.30
2022-08-11T01:40:11.869Z,5.93
2022-08-11T01:43:23.813Z,2.80
2022-08-11T01:46:25.410Z,5.18
2022-08-11T01:50:08.324Z,2.03
2022-08-11T01:52:19.948Z,2.60
2022-08-11T01:55:14.997Z,5.00
2022-08-11T01:57:53.638Z,2.83
2022-08-11T02:00:25.026Z,2.47
2022-08-11T02:03:17.071Z,1.35
2022-08-11T02:05:43.773Z,2.30
2022-08-11T02:08:33.602Z,2.35
2022-08-11T02:11:31.574Z,2.05
2022-08-11T02:14:17.381Z,3.80
2022-08-11T02:16:55.960Z,1.80
2022-08-11T02:20:14.507Z,1.95
2022-08-11T02:24:04.178Z,5.47
2022-08-11T02:26:26.881Z,1.27
2022-08-11T02:29:15.288Z,3.28
2022-08-11T02:32:28.792Z,2.28
2022-08-11T02:35:42.922Z,5.70
2022-08-11T02:38:25.052Z,4.97
2022-08-11T02:41:35.446Z,6.15
2022-08-11T02:44:16.920Z,7.68
2022-08-11T02:47:02.099Z,6.28
2022-08-11T02:50:02.652Z,11.65
2022-08-11T02:52:47.768Z,6.28
2022-08-11T02:55:56.425Z,4.95
2022-08-11T02:58:39.261Z,13.95
2022-08-11T03:01:24.170Z,15.73
2022-08-11T03:04:01.256Z,12.23
2022-08-11T03:06:41.417Z,13.93
2022-08-11T03:09:19.647Z,5.10
2022-08-11T03:12:16.622Z,5.27
2022-08-11T03:15:01.924Z,3.08
2022-08-11T03:18:03.994Z,3.53
2022-08-11T03:20:44.924Z,6.85
2022-08-11T03:23:19.677Z,7.25
2022-08-11T03:26:07.793Z,3.03
2022-08-11T03:28:42.085Z,5.50
2022-08-11T03:31:27.654Z,5.38
2022-08-11T03:34:14.191Z,4.28
2022-08-11T03:37:53.427Z,3.25
2022-08-11T03:40:43.051Z,6.68
2022-08-11T03:43:45.766Z,3.22
2022-08-11T03:46:27.683Z,6.03
2022-08-11T03:49:10.278Z,6.28
2022-08-11T03:51:52.316Z,4.65
2022-08-11T03:54:28.422Z,4.55
2022-08-11T03:57:22.473Z,2.67
2022-08-11T04:00:11.255Z,6.38
2022-08-11T04:03:15.743Z,8.32
2022-08-11T04:06:11.775Z,8.57
2022-08-11T04:09:16.962Z,12.23
2022-08-11T04:12:14.778Z,10.40
2022-08-11T04:15:15.781Z,7.93
2022-08-11T04:18:00.922Z,12.30
2022-08-11T04:20:30.634Z,7.38
2022-08-11T04:24:36.133Z,10.27
2022-08-11T04:26:34.483Z,5.32
2022-08-11T04:30:01.017Z,15.38
2022-08-11T04:32:48.959Z,5.72
2022-08-11T04:35:35.190Z,9.95
2022-08-11T04:38:10.915Z,6.43
2022-08-11T04:41:01.085Z,4.22
2022-08-11T04:44:05.797Z,8.60
2022-08-11T04:49:43.981Z,9.77
2022-08-11T04:52:53.837Z,13.70
2022-08-11T04:55:57.835Z,4.90
2022-08-11T04:59:08.242Z,10.43
2022-08-11T05:01:44.182Z,11.77
2022-08-11T05:04:53.922Z,4.70
2022-08-11T05:07:41.631Z,9.00
2022-08-11T05:10:20.369Z,6.75
2022-08-11T05:13:18.453Z,4.50
2022-08-11T05:16:14.926Z,5.17
2022-08-11T05:19:10.958Z,7.80
2022-08-11T05:22:01.376Z,4.20
2022-08-11T05:24:56.358Z,3.35
2022-08-11T05:27:55.707Z,2.47
2022-08-11T05:30:46.851Z,5.63
2022-08-11T05:33:42.769Z,4.53
2022-08-11T05:39:16.463Z,11.05
2022-08-11T05:42:01.938Z,6.32
2022-08-11T05:44:47.716Z,1.75
2022-08-11T05:47:44.252Z,5.18
2022-08-11T05:50:33.110Z,5.57
2022-08-11T05:56:04.458Z,5.03
2022-08-11T05:58:41.306Z,6.47
2022-08-11T06:01:10.805Z,4.35
2022-08-11T06:03:58.519Z,2.75
2022-08-11T06:06:29.337Z,5.70
2022-08-11T06:08:57.723Z,3.13
2022-08-11T06:11:42.851Z,1.88
2022-08-11T06:14:12.832Z,2.60
2022-08-11T06:16:43.744Z,2.03
2022-08-11T06:19:10.619Z,6.10
2022-08-11T06:21:38.433Z,4.43
2022-08-11T06:24:12.787Z,4.40
2022-08-11T06:27:08.993Z,1.23
2022-08-11T06:29:47.962Z,2.88
2022-08-11T06:32:28.172Z,3.00
2022-08-11T06:35:13.822Z,1.95
2022-08-11T06:37:42.353Z,6.63
2022-08-11T06:40:17.779Z,3.53
2022-08-11T06:42:58.793Z,2.60
2022-08-11T06:45:48.322Z,2.45
2022-08-11T06:48:22.044Z,5.60
2022-08-11T06:51:17.353Z,6.43
2022-08-11T06:53:56.339Z,1.77
2022-08-11T06:57:28.478Z,7.60
2022-08-11T07:00:09.962Z,9.50
2022-08-11T07:02:42.839Z,6.05
2022-08-11T07:05:48.474Z,9.48
2022-08-11T07:08:44.837Z,2.92
2022-08-11T07:12:06.006Z,5.45
2022-08-11T07:15:01.104Z,5.07
2022-08-11T07:17:32.094Z,4.32
2022-08-11T07:20:18.923Z,3.97
2022-08-11T07:23:09.866Z,3.80
2022-08-11T07:26:00.775Z,4.22
2022-08-11T07:28:47.903Z,7.40
2022-08-11T07:31:21.480Z,2.20
2022-08-11T07:34:07.618Z,3.55
2022-08-11T07:36:45.057Z,1.92
2022-08-11T07:39:27.551Z,4.43
2022-08-11T07:41:57.268Z,4.53
2022-08-11T07:44:34.993Z,2.13
2022-08-11T07:47:21.292Z,2.72
2022-08-11T07:50:11.124Z,1.30
2022-08-11T07:52:40.656Z,4.40
2022-08-11T07:55:17.703Z,6.18
2022-08-11T07:58:16.785Z,3.65
2022-08-11T08:01:21.553Z,3.63
2022-08-11T08:04:12.747Z,4.53
2022-08-11T08:07:00.491Z,10.48
2022-08-11T08:09:46.250Z,3.75
2022-08-11T08:12:31.949Z,3.55
2022-08-11T08:15:17.742Z,7.88
2022-08-11T08:18:09.997Z,2.28
2022-08-11T08:20:50.106Z,2.85
2022-08-11T08:23:33.343Z,4.75
2022-08-11T08:26:04.465Z,5.20
2022-08-11T08:28:32.951Z,2.65
2022-08-11T08:31:02.484Z,1.73
2022-08-11T08:33:31.118Z,4.35
2022-08-11T08:36:13.062Z,3.67
2022-08-11T08:38:51.078Z,12.93
2022-08-11T08:41:23.403Z,4.23
2022-08-11T08:43:52.144Z,5.60
2022-08-11T08:46:22.297Z,5.90
2022-08-11T08:48:50.436Z,2.88
2022-08-11T08:52:01.516Z,6.05
2022-08-11T08:54:37.739Z,4.22
2022-08-11T08:57:08.283Z,3.45
2022-08-11T08:59:48.447Z,6.03
2022-08-11T09:02:17.766Z,4.65
2022-08-11T09:04:46.022Z,3.95
2022-08-11T09:07:15.507Z,3.53
2022-08-11T09:09:48.559Z,3.08
2022-08-11T09:12:36.539Z,10.95
2022-08-11T09:15:11.796Z,8.68
2022-08-11T09:17:41.116Z,3.17
2022-08-11T09:20:34.217Z,1.17
2022-08-11T09:24:07.992Z,2.45
2022-08-11T09:26:31.017Z,3.45
2022-08-11T09:31:26.799Z,3.22
2022-08-11T09:33:57.317Z,2.38
2022-08-11T09:36:43.026Z,2.88
2022-08-11T09:39:34.626Z,3.75
2022-08-11T09:42:07.074Z,0.52
2022-08-11T09:44:50.627Z,3.50
2022-08-11T09:47:29.501Z,2.13
2022-08-11T09:52:33.688Z,1.95
2022-08-11T09:55:01.380Z,0.57
2022-08-11T09:57:49.219Z,2.17
2022-08-11T10:00:18.837Z,1.80
2022-08-11T10:02:47.612Z,1.25
2022-08-11T10:08:04.044Z,1.60
2022-08-11T10:10:36.563Z,3.83
2022-08-11T10:14:04.825Z,1.42
2022-08-11T10:16:16.005Z,1.50
2022-08-11T10:18:53.823Z,2.38
2022-08-11T10:21:28.416Z,1.27
2022-08-11T10:24:18.207Z,4.28
2022-08-11T10:26:55.834Z,2.47
2022-08-11T10:29:52.106Z,1.63
2022-08-11T10:32:57.931Z,2.40
2022-08-11T10:35:30.288Z,4.40
2022-08-11T10:38:07.277Z,2.17
2022-08-11T10:40:39.085Z,5.22
2022-08-11T10:43:08.226Z,3.70
2022-08-11T10:46:00.080Z,1.08
2022-08-11T10:48:29.023Z,1.90
2022-08-11T10:51:14.893Z,2.97
2022-08-11T10:54:12.382Z,2.92
2022-08-11T10:56:58.747Z,4.45
2022-08-11T10:59:28.045Z,6.95
2022-08-11T11:01:59.064Z,3.33
2022-08-11T11:05:01.929Z,1.05
2022-08-11T11:07:44.443Z,2.03
2022-08-11T11:10:11.492Z,0.75
2022-08-11T11:13:06.455Z,2.03
2022-08-11T11:15:54.845Z,0.75
2022-08-11T11:21:01.582Z,1.60
2022-08-11T11:23:47.330Z,2.47
2022-08-11T11:26:41.306Z,0.82
2022-08-11T11:29:33.270Z,1.40
2022-08-11T11:32:20.569Z,1.02
2022-08-11T11:35:07.105Z,3.97
2022-08-11T11:37:37.106Z,2.75
2022-08-11T11:40:15.464Z,7.47
2022-08-11T11:42:44.933Z,3.85
2022-08-11T11:45:22.726Z,1.20
2022-08-11T11:47:54.022Z,1.33
2022-08-11T11:50:34.752Z,2.53
2022-08-11T11:53:07.354Z,4.10
2022-08-11T11:55:37.176Z,2.25
2022-08-11T11:58:23.626Z,4.13
2022-08-11T12:01:10.487Z,2.05
2022-08-11T12:03:44.864Z,1.75
2022-08-11T12:06:14.429Z,1.33
2022-08-11T12:08:42.169Z,0.55
2022-08-11T12:11:31.341Z,1.53
2022-08-11T12:14:04.696Z,0.95
2022-08-11T12:16:40.591Z,1.75
2022-08-11T12:19:12.397Z,1.67
2022-08-11T12:22:00.935Z,3.15
2022-08-11T12:24:49.987Z,1.40
2022-08-11T12:27:24.174Z,2.35
2022-08-11T12:30:01.171Z,5.10
2022-08-11T12:32:32.783Z,2.05
2022-08-11T12:35:05.592Z,0.85
2022-08-11T12:37:38.433Z,0.82
2022-08-11T12:40:49.926Z,2.25
2022-08-11T12:43:38.049Z,4.63
2022-08-11T12:46:31.892Z,3.60
2022-08-11T12:49:18.533Z,2.90
2022-08-11T12:52:14.452Z,0.95
2022-08-11T12:55:12.557Z,2.63
2022-08-11T12:58:03.785Z,1.27
2022-08-11T13:00:51.172Z,0.63
2022-08-11T13:03:40.070Z,2.00
2022-08-11T13:06:07.769Z,0.88
2022-08-11T13:08:38.578Z,0.95
2022-08-11T13:11:56.801Z,2.90
2022-08-11T13:14:15.510Z,0.82
2022-08-11T13:19:31.546Z,0.68
2022-08-11T13:22:02.387Z,2.83
2022-08-11T13:24:29.573Z,1.20
2022-08-11T13:27:02.219Z,1.38
2022-08-11T13:29:31.670Z,1.25
2022-08-11T13:32:00.049Z,1.90
2022-08-11T13:34:33.011Z,2.03
2022-08-11T13:37:05.537Z,0.35
2022-08-11T13:39:34.201Z,3.25
2022-08-11T13:42:02.479Z,2.60
2022-08-11T13:44:31.396Z,4.13
2022-08-11T13:47:01.639Z,1.85
2022-08-11T13:49:29.437Z,2.13
2022-08-11T13:51:56.840Z,0.80
2022-08-11T13:54:43.060Z,4.60
2022-08-11T13:57:13.803Z,2.35
2022-08-11T14:00:15.835Z,1.75
2022-08-11T14:02:54.342Z,0.68
2022-08-11T14:05:27.982Z,1.13
2022-08-11T14:08:03.987Z,1.88
2022-08-11T14:10:34.465Z,3.20
2022-08-11T14:13:21.768Z,2.58
2022-08-11T14:15:49.968Z,3.83
2022-08-11T14:18:16.695Z,3.75
2022-08-11T14:21:02.547Z,2.80
2022-08-11T14:23:38.960Z,1.77
2022-08-11T14:26:27.027Z,5.60
2022-08-11T14:28:57.001Z,2.95
2022-08-11T14:31:25.616Z,8.93
2022-08-11T14:34:01.113Z,2.45
2022-08-11T14:36:37.352Z,0.80
2022-08-11T14:39:17.087Z,0.95
2022-08-11T14:42:11.155Z,5.78
2022-08-11T14:45:03.726Z,0.85
2022-08-11T14:47:35.771Z,3.25
2022-08-11T14:50:11.587Z,1.27
2022-08-11T14:52:44.564Z,1.38
2022-08-11T14:55:31.302Z,0.50
2022-08-11T14:57:58.630Z,1.65
2022-08-11T15:00:26.509Z,0.50
2022-08-11T15:03:14.571Z,3.35
2022-08-11T15:08:52.135Z,0.35
2022-08-11T15:11:39.480Z,2.58
2022-08-11T15:14:10.463Z,0.98
2022-08-11T15:16:59.447Z,0.65
2022-08-11T15:19:40.520Z,1.08
2022-08-11T15:22:28.989Z,3.80
2022-08-11T15:24:59.861Z,3.70
2022-08-11T15:27:48.693Z,0.57
2022-08-11T15:30:37.285Z,1.23
2022-08-11T15:33:27.323Z,1.27
2022-08-11T15:36:16.182Z,2.40
2022-08-11T15:39:19.493Z,0.30
2022-08-11T15:42:19.493Z,3.17
2022-08-11T15:45:10.355Z,3.40
2022-08-11T15:47:58.419Z,5.57
2022-08-11T15:50:33.676Z,3.92
2022-08-11T15:53:04.221Z,16.42
2022-08-11T15:55:33.237Z,3.08
2022-08-11T15:58:22.173Z,2.03
2022-08-11T16:01:11.359Z,2.28
2022-08-11T16:04:13.288Z,2.65
2022-08-11T16:06:49.453Z,12.43
2022-08-11T16:09:52.042Z,13.52
2022-08-11T16:12:23.653Z,17.00
2022-08-11T16:15:15.215Z,5.07
2022-08-11T16:17:57.011Z,2.50
2022-08-11T16:20:26.619Z,6.03
2022-08-11T16:23:02.463Z,4.00
2022-08-11T16:27:03.405Z,5.53
2022-08-11T16:28:20.804Z,2.22
2022-08-11T16:30:48.487Z,2.75
2022-08-11T16:33:48.703Z,2.53
2022-08-11T16:36:24.891Z,1.85
2022-08-11T16:38:53.200Z,1.98
2022-08-11T16:41:42.246Z,3.72
2022-08-11T16:44:37.094Z,1.35
2022-08-11T16:47:10.935Z,2.20
2022-08-11T16:49:53.300Z,2.95
2022-08-11T16:52:23.380Z,0.98
2022-08-11T16:54:52.623Z,2.85
2022-08-11T16:57:43.874Z,0.70
2022-08-11T17:00:16.464Z,1.25
2022-08-11T17:03:15.562Z,5.10
2022-08-11T17:06:05.482Z,0.85
2022-08-11T17:08:58.488Z,2.15
2022-08-11T17:11:53.108Z,3.90
2022-08-11T17:14:36.229Z,13.57
2022-08-11T17:17:08.935Z,6.25
2022-08-11T17:20:41.298Z,16.50
2022-08-11T17:22:54.752Z,9.20
2022-08-11T17:25:24.937Z,6.88
2022-08-11T17:27:52.655Z,9.95
2022-08-11T17:30:20.322Z,9.45
2022-08-11T17:33:08.281Z,5.43
2022-08-11T17:35:44.768Z,3.47
2022-08-11T17:38:16.627Z,5.97
2022-08-11T17:41:08.441Z,3.05
2022-08-11T17:43:54.642Z,3.00
2022-08-11T17:46:40.433Z,4.60
2022-08-11T17:49:09.012Z,5.70
2022-08-11T17:54:45.671Z,3.78
2022-08-11T17:57:36.115Z,3.28
2022-08-11T18:00:09.635Z,2.72
2022-08-11T18:03:00.099Z,4.28
2022-08-11T18:05:35.093Z,2.05
2022-08-11T18:08:25.992Z,2.42
2022-08-11T18:11:13.233Z,2.47
2022-08-11T18:14:10.308Z,1.20
2022-08-11T18:16:55.638Z,2.72
2022-08-11T18:19:40.992Z,2.25
2022-08-11T18:22:40.786Z,5.57
2022-08-11T18:25:31.628Z,11.35
2022-08-11T18:28:18.492Z,4.10
2022-08-11T18:31:09.645Z,3.95
2022-08-11T18:34:10.918Z,2.92
2022-08-11T18:37:27.236Z,4.30
2022-08-11T18:40:25.163Z,6.20
2022-08-11T18:43:15.913Z,3.17
2022-08-11T18:46:08.317Z,3.50
2022-08-11T18:48:58.197Z,4.13
2022-08-11T18:51:43.890Z,4.57
2022-08-11T18:54:30.359Z,2.63
2022-08-11T18:57:20.368Z,1.40
2022-08-11T19:00:06.208Z,1.27
2022-08-11T19:02:56.111Z,1.52
2022-08-11T19:06:05.234Z,1.55
2022-08-11T19:09:00.706Z,2.05
2022-08-11T19:11:47.816Z,4.07
2022-08-11T19:14:36.218Z,1.20
2022-08-11T19:17:43.498Z,10.05
2022-08-11T19:20:36.658Z,11.63
2022-08-11T19:23:27.500Z,8.30
2022-08-11T19:26:13.288Z,12.40
2022-08-11T19:29:01.628Z,16.08
2022-08-11T19:31:52.447Z,11.27
2022-08-11T19:34:40.342Z,8.38
2022-08-11T19:37:29.162Z,12.68
2022-08-11T19:40:20.801Z,18.25
2022-08-11T19:43:16.846Z,15.27
2022-08-11T19:46:15.272Z,11.75
2022-08-11T19:51:47.538Z,9.90
2022-08-11T19:54:42.290Z,10.40
2022-08-11T19:57:32.529Z,2.25
2022-08-11T20:00:30.032Z,12.30
2022-08-11T20:03:19.523Z,9.77
2022-08-11T20:06:06.512Z,8.27
2022-08-11T20:08:58.515Z,6.68
2022-08-11T20:11:48.754Z,3.92
2022-08-11T20:14:36.045Z,5.28
2022-08-11T20:17:22.540Z,7.78
2022-08-11T20:20:09.796Z,6.47
2022-08-11T20:22:55.560Z,6.88
2022-08-11T20:25:42.492Z,5.45
2022-08-11T20:28:28.493Z,0.80
2022-08-11T20:31:17.229Z,4.22
2022-08-11T20:34:03.078Z,3.70
2022-08-11T20:36:52.539Z,6.07
2022-08-11T20:39:43.628Z,4.88
2022-08-11T20:42:33.095Z,6.05
2022-08-11T20:45:23.970Z,5.60
2022-08-11T20:48:15.002Z,3.58
2022-08-11T20:51:07.557Z,2.55
2022-08-11T20:53:58.456Z,3.17
2022-08-11T20:56:46.562Z,4.32
2022-08-11T20:59:38.438Z,7.15
2022-08-11T21:02:35.544Z,10.48
2022-08-11T21:06:10.226Z,3.80
2022-08-11T21:08:31.035Z,8.48
2022-08-11T21:11:27.740Z,6.03
2022-08-11T21:14:14.219Z,5.45
2022-08-11T21:17:00.576Z,1.58
2022-08-11T21:19:59.984Z,1.50
2022-08-11T21:23:05.504Z,1.60
2022-08-11T21:26:04.253Z,2.53
2022-08-11T21:28:50.500Z,2.47
2022-08-11T21:31:39.200Z,4.10
2022-08-11T21:34:25.108Z,1.67
2022-08-11T21:37:11.466Z,1.45
2022-08-11T21:39:58.472Z,1.30
2022-08-11T21:42:47.037Z,2.67
2022-08-11T21:45:32.760Z,8.00
2022-08-11T21:48:19.043Z,10.27
2022-08-11T21:51:04.471Z,15.35
2022-08-11T21:53:50.744Z,19.42
2022-08-11T21:56:36.431Z,23.98
2022-08-11T21:59:21.727Z,33.47
2022-08-11T22:02:12.863Z,30.43
2022-08-11T22:04:59.343Z,30.75
2022-08-11T22:07:45.215Z,18.45
2022-08-11T22:10:40.552Z,25.08
2022-08-11T22:13:27.532Z,15.85
2022-08-11T22:16:13.291Z,22.95
2022-08-11T22:18:58.905Z,23.27
2022-08-11T22:22:02.570Z,18.50
2022-08-11T22:24:51.325Z,16.50
2022-08-11T22:27:37.132Z,45.88
2022-08-11T22:30:26.142Z,25.90
2022-08-11T22:33:12.018Z,33.70
2022-08-11T22:38:50.013Z,18.07
2022-08-11T22:41:35.365Z,16.00
2022-08-11T22:44:21.587Z,10.00
2022-08-11T22:47:08.213Z,13.90
2022-08-11T22:49:58.522Z,15.15
2022-08-11T22:52:47.117Z,11.95
2022-08-11T22:55:33.861Z,6.22
2022-08-11T22:58:23.199Z,4.50
2022-08-11T23:01:17.450Z,2.50
2022-08-11T23:04:05.399Z,2.92
2022-08-11T23:06:53.291Z,1.33
2022-08-11T23:09:39.011Z,4.80
2022-08-11T23:12:24.765Z,9.45
2022-08-11T23:15:10.714Z,3.58
2022-08-11T23:18:01.991Z,7.93
2022-08-11T23:20:56.626Z,20.67
2022-08-11T23:23:44.500Z,15.75
2022-08-11T23:26:30.039Z,31.48
2022-08-11T23:29:16.402Z,25.00
2022-08-11T23:32:04.882Z,21.83
2022-08-11T23:35:03.790Z,25.13
2022-08-11T23:37:50.474Z,33.15
2022-08-11T23:40:39.715Z,26.02
2022-08-11T23:43:26.043Z,29.73
2022-08-11T23:46:11.313Z,10.07
2022-08-11T23:49:00.352Z,20.30
2022-08-11T23:51:46.928Z,14.50
2022-08-11T23:54:37.303Z,12.05
2022-08-11T23:57:24.013Z,26.00
